Time;durP1;ratioP1;P1;durP2;ratioP2;P2;SDS_P1;SDS_P2;PMS_P1;PMS_P2;Temp;Humidity;BMP_temperature;BMP_pressure;BME280_temperature;BME280_humidity;BME280_pressure;Samples;Min_cycle;Max_cycle;Signal;HPM_P1;HPM_P2
2023/12/04 00:02:09;;;;;;;35.20;19.25;;;-6.90;99.90;;;;;;5044813;28;20106;-74
2023/12/04 00:04:35;;;;;;;34.58;18.50;;;-6.90;99.90;;;;;;5031460;28;20045;-74
2023/12/04 00:07:01;;;;;;;31.50;18.45;;;-6.90;99.90;;;;;;5046055;28;20033;-74
2023/12/04 00:09:27;;;;;;;36.22;20.33;;;-6.90;99.90;;;;;;5046242;28;20029;-73
2023/12/04 00:11:53;;;;;;;31.48;18.90;;;-6.90;99.90;;;;;;5046351;28;20033;-74
2023/12/04 00:14:19;;;;;;;33.28;18.83;;;-6.90;99.90;;;;;;5046721;28;20029;-74
2023/12/04 00:16:44;;;;;;;32.15;18.13;;;-7.00;99.90;;;;;;5044078;28;20511;-74
2023/12/04 00:19:10;;;;;;;33.60;19.77;;;-7.10;99.90;;;;;;5042383;28;20029;-73
2023/12/04 00:21:36;;;;;;;34.50;19.02;;;-7.10;99.90;;;;;;5046559;28;20036;-74
2023/12/04 00:24:02;;;;;;;37.15;19.52;;;-7.00;99.90;;;;;;5047191;28;20037;-74
2023/12/04 00:26:28;;;;;;;34.25;18.85;;;-7.00;99.90;;;;;;5040336;28;20085;-74
2023/12/04 00:28:54;;;;;;;33.90;19.67;;;-7.00;99.90;;;;;;5039865;28;20033;-74
2023/12/04 00:31:20;;;;;;;41.13;22.60;;;-6.90;99.90;;;;;;5045628;28;20402;-74
2023/12/04 00:33:45;;;;;;;38.95;21.67;;;-6.80;99.90;;;;;;5036033;28;20383;-74
2023/12/04 00:36:11;;;;;;;43.17;21.75;;;-6.70;99.90;;;;;;5041664;28;20051;-73
2023/12/04 00:38:37;;;;;;;41.38;22.55;;;-6.60;99.90;;;;;;5043579;28;20033;-74
2023/12/04 00:41:03;;;;;;;40.92;22.50;;;-6.60;99.90;;;;;;5045896;28;20047;-74
2023/12/04 00:43:29;;;;;;;44.42;23.17;;;-6.50;99.90;;;;;;5047882;28;20035;-74
2023/12/04 00:45:55;;;;;;;41.47;21.73;;;-6.40;99.90;;;;;;5041318;28;20067;-74
2023/12/04 00:48:20;;;;;;;39.40;20.90;;;-6.30;99.90;;;;;;5006438;28;20080;-73
2023/12/04 00:50:46;;;;;;;43.85;22.70;;;-6.30;99.90;;;;;;5043572;28;20040;-74
2023/12/04 00:53:12;;;;;;;41.20;20.88;;;-6.20;99.90;;;;;;5046636;28;20025;-73
2023/12/04 00:55:38;;;;;;;40.80;21.95;;;-6.20;99.90;;;;;;5042310;28;20139;-74
2023/12/04 00:58:04;;;;;;;42.35;21.65;;;-6.10;99.90;;;;;;5024755;28;20049;-73
2023/12/04 01:00:29;;;;;;;43.05;23.23;;;-6.10;99.90;;;;;;5045536;28;20055;-74
2023/12/04 01:02:55;;;;;;;38.92;20.42;;;-6.10;99.90;;;;;;5031592;28;20390;-73
2023/12/04 01:05:21;;;;;;;40.45;21.90;;;-6.10;99.90;;;;;;5036521;28;20115;-73
2023/12/04 01:07:46;;;;;;;40.72;22.58;;;-6.00;99.90;;;;;;5049063;28;20044;-72
2023/12/04 01:10:12;;;;;;;37.85;20.83;;;-6.00;99.90;;;;;;5036867;28;20435;-73
2023/12/04 01:12:38;;;;;;;38.67;21.20;;;-6.00;99.90;;;;;;5029797;28;20032;-73
2023/12/04 01:15:04;;;;;;;37.80;20.15;;;-5.90;99.90;;;;;;5041756;28;20057;-73
2023/12/04 01:17:30;;;;;;;37.75;21.10;;;-5.90;99.90;;;;;;5042475;28;20506;-74
2023/12/04 01:19:57;;;;;;;39.00;21.10;;;-5.90;99.90;;;;;;5042410;28;20140;-73
2023/12/04 01:22:23;;;;;;;45.05;21.92;;;-5.90;99.90;;;;;;5051329;28;20060;-73
2023/12/04 01:24:48;;;;;;;39.22;20.73;;;-6.00;99.90;;;;;;5050334;28;20133;-74
2023/12/04 01:27:14;;;;;;;39.55;21.13;;;-6.00;99.90;;;;;;5046358;28;20082;-74
2023/12/04 01:29:40;;;;;;;40.85;21.38;;;-5.90;99.90;;;;;;5047821;28;20025;-74
2023/12/04 01:32:06;;;;;;;39.13;20.42;;;-5.90;99.90;;;;;;5039617;28;20033;-73
2023/12/04 01:34:31;;;;;;;38.58;20.80;;;-5.90;99.90;;;;;;5043807;28;20060;-74
2023/12/04 01:36:57;;;;;;;38.22;21.08;;;-5.90;99.90;;;;;;5042495;28;20036;-73
2023/12/04 01:39:23;;;;;;;38.00;21.08;;;-5.90;99.90;;;;;;5047244;28;20037;-73
2023/12/04 01:41:49;;;;;;;40.83;21.20;;;-5.90;99.90;;;;;;5050416;28;20044;-73
2023/12/04 01:44:15;;;;;;;39.17;21.15;;;-5.90;99.90;;;;;;5035415;28;20032;-74
2023/12/04 01:46:41;;;;;;;37.67;21.40;;;-5.90;99.90;;;;;;5046232;28;20119;-73
2023/12/04 01:49:08;;;;;;;39.78;22.27;;;-6.00;99.90;;;;;;5047558;28;20052;-74
2023/12/04 01:51:34;;;;;;;41.90;21.85;;;-5.90;99.90;;;;;;5049400;28;20546;-73
2023/12/04 01:54:03;;;;;;;39.90;20.88;;;-5.90;99.90;;;;;;5048443;28;20052;-73
2023/12/04 01:56:30;;;;;;;38.33;21.70;;;-5.90;99.90;;;;;;5047080;28;20033;-73
2023/12/04 01:58:56;;;;;;;40.50;21.83;;;-5.90;99.90;;;;;;5042671;28;20150;-74
2023/12/04 02:01:23;;;;;;;39.92;21.85;;;-5.90;99.90;;;;;;5040798;28;20056;-73
2023/12/04 02:03:50;;;;;;;37.50;20.63;;;-5.80;99.90;;;;;;5046384;28;20036;-73
2023/12/04 02:06:16;;;;;;;36.08;20.92;;;-5.80;99.90;;;;;;5044653;28;20110;-74
2023/12/04 02:08:43;;;;;;;38.05;20.55;;;-5.80;99.90;;;;;;5048706;28;20028;-73
2023/12/04 02:11:09;;;;;;;41.83;22.42;;;-5.80;99.90;;;;;;5048443;28;20037;-73
2023/12/04 02:13:35;;;;;;;40.47;21.92;;;-5.80;99.90;;;;;;5040948;28;20072;-74
2023/12/04 02:16:06;;;;;;;40.47;21.88;;;-5.70;99.90;;;;;;5043381;28;20065;-75
2023/12/04 02:18:33;;;;;;;40.08;21.73;;;-5.70;99.90;;;;;;5033944;28;20568;-75
2023/12/04 02:21:00;;;;;;;36.90;20.15;;;-5.70;99.90;;;;;;5045213;28;20628;-74
2023/12/04 02:23:26;;;;;;;33.67;18.88;;;-5.70;99.90;;;;;;5048723;28;20059;-74
2023/12/04 02:25:58;;;;;;;35.83;19.80;;;-5.70;99.90;;;;;;5045749;28;20037;-74
2023/12/04 02:28:29;;;;;;;36.45;20.08;;;-5.70;99.90;;;;;;5048385;28;20048;-74
2023/12/04 02:30:55;;;;;;;36.92;19.52;;;-5.70;99.90;;;;;;5044476;28;20029;-74
2023/12/04 02:33:24;;;;;;;34.75;18.83;;;-5.70;99.90;;;;;;5042195;28;20033;-75
2023/12/04 02:35:51;;;;;;;34.63;20.30;;;-5.70;99.90;;;;;;5044154;28;20043;-74
2023/12/04 02:38:18;;;;;;;37.25;20.10;;;-5.70;99.90;;;;;;5037664;28;20035;-72
2023/12/04 02:40:44;;;;;;;30.92;17.83;;;-5.70;99.90;;;;;;5046053;28;20541;-74
2023/12/04 02:43:09;;;;;;;36.10;19.75;;;-5.70;99.90;;;;;;5048717;28;20033;-74
2023/12/04 02:45:35;;;;;;;33.95;18.42;;;-5.70;99.90;;;;;;5041084;28;20032;-74
2023/12/04 02:48:01;;;;;;;35.58;18.48;;;-5.70;99.90;;;;;;5045848;28;20053;-75
2023/12/04 02:50:26;;;;;;;38.28;20.02;;;-5.60;99.90;;;;;;5044537;28;20471;-75
2023/12/04 02:52:52;;;;;;;37.40;19.85;;;-5.60;99.90;;;;;;5046136;28;20025;-74
2023/12/04 02:55:18;;;;;;;41.92;21.13;;;-5.60;99.90;;;;;;5037969;28;20052;-74
2023/12/04 02:57:43;;;;;;;38.08;20.05;;;-5.60;99.90;;;;;;5045524;28;20040;-74
2023/12/04 03:00:13;;;;;;;38.63;20.35;;;-5.60;99.90;;;;;;5030917;28;20029;-74
2023/12/04 03:02:39;;;;;;;40.25;20.40;;;-5.60;99.90;;;;;;5050513;28;20124;-74
2023/12/04 03:05:05;;;;;;;36.92;19.50;;;-5.60;99.90;;;;;;5046846;28;20111;-74
2023/12/04 03:07:31;;;;;;;38.45;20.63;;;-5.60;99.90;;;;;;5046617;28;20448;-75
2023/12/04 03:09:57;;;;;;;41.03;22.00;;;-5.60;99.90;;;;;;5021754;28;20154;-74
2023/12/04 03:12:23;;;;;;;37.55;21.60;;;-5.60;99.90;;;;;;5044629;28;20017;-74
2023/12/04 03:14:48;;;;;;;40.15;21.77;;;-5.60;99.90;;;;;;5043734;28;20025;-74
2023/12/04 03:17:14;;;;;;;40.92;21.60;;;-5.60;99.90;;;;;;5047820;28;20032;-74
2023/12/04 03:19:40;;;;;;;43.38;21.35;;;-5.50;99.90;;;;;;5046566;28;20102;-74
2023/12/04 03:22:06;;;;;;;40.50;22.08;;;-5.60;99.90;;;;;;5048706;28;20025;-74
2023/12/04 03:24:31;;;;;;;42.28;21.63;;;-5.60;99.90;;;;;;5046264;28;20155;-74
2023/12/04 03:26:57;;;;;;;40.55;21.00;;;-5.50;99.90;;;;;;5046163;28;20028;-74
2023/12/04 03:29:23;;;;;;;42.63;21.38;;;-5.50;99.90;;;;;;5043121;28;20055;-74
2023/12/04 03:31:49;;;;;;;39.90;21.50;;;-5.50;99.90;;;;;;5043532;28;20059;-74
2023/12/04 03:34:14;;;;;;;41.33;22.42;;;-5.60;99.90;;;;;;5044855;28;20025;-74
2023/12/04 03:36:40;;;;;;;37.05;20.92;;;-5.50;99.90;;;;;;5043177;28;20087;-74
2023/12/04 03:39:06;;;;;;;41.55;22.23;;;-5.50;99.90;;;;;;5004814;28;20033;-74
2023/12/04 03:41:32;;;;;;;42.20;20.60;;;-5.50;99.90;;;;;;5046971;28;20170;-74
2023/12/04 03:43:57;;;;;;;41.88;21.90;;;-5.50;99.90;;;;;;5043785;28;20380;-74
2023/12/04 03:46:23;;;;;;;45.88;21.63;;;-5.40;99.90;;;;;;5046692;28;20025;-74
2023/12/04 03:48:49;;;;;;;42.40;21.88;;;-5.40;99.90;;;;;;5041910;28;20036;-74
2023/12/04 03:51:14;;;;;;;39.55;20.67;;;-5.40;99.90;;;;;;5040210;28;20025;-74
2023/12/04 03:53:40;;;;;;;44.13;22.77;;;-5.40;99.90;;;;;;5045363;28;20025;-74
2023/12/04 03:56:06;;;;;;;37.03;20.52;;;-5.40;99.90;;;;;;5045886;28;20056;-74
2023/12/04 03:58:32;;;;;;;40.05;21.27;;;-5.40;99.90;;;;;;5052987;28;20046;-74
2023/12/04 04:00:58;;;;;;;45.13;22.02;;;-5.40;99.90;;;;;;5047359;28;20059;-74
2023/12/04 04:03:23;;;;;;;39.95;21.05;;;-5.40;99.90;;;;;;5047304;28;20025;-73
2023/12/04 04:05:49;;;;;;;37.92;19.98;;;-5.50;99.90;;;;;;5045275;28;20553;-75
2023/12/04 04:08:14;;;;;;;40.70;20.38;;;-5.50;99.90;;;;;;5041220;28;20021;-74
2023/12/04 04:10:40;;;;;;;42.53;22.10;;;-5.50;99.90;;;;;;5043379;28;20438;-74
2023/12/04 04:13:06;;;;;;;41.78;20.92;;;-5.50;99.90;;;;;;5030843;28;20026;-74
2023/12/04 04:15:32;;;;;;;41.22;21.08;;;-5.50;99.90;;;;;;5042090;28;20062;-73
2023/12/04 04:17:58;;;;;;;39.92;20.60;;;-5.60;99.90;;;;;;5039504;28;20043;-73
2023/12/04 04:20:23;;;;;;;42.03;21.20;;;-5.50;99.90;;;;;;5048782;28;20506;-73
2023/12/04 04:22:49;;;;;;;39.55;20.77;;;-5.60;99.90;;;;;;5045045;28;20032;-74
2023/12/04 04:25:15;;;;;;;40.75;21.02;;;-5.60;99.90;;;;;;5046051;28;20122;-74
2023/12/04 04:27:41;;;;;;;41.72;20.75;;;-5.60;99.90;;;;;;5045346;28;20065;-74
2023/12/04 04:30:08;;;;;;;40.00;20.50;;;-5.60;99.90;;;;;;5044270;28;20060;-74
2023/12/04 04:32:34;;;;;;;39.60;21.90;;;-5.60;99.90;;;;;;5046430;28;20030;-74
2023/12/04 04:34:59;;;;;;;38.15;21.02;;;-5.50;99.90;;;;;;5045253;28;20067;-75
2023/12/04 04:37:25;;;;;;;39.20;21.80;;;-5.50;99.90;;;;;;5045056;28;20037;-74
2023/12/04 04:39:51;;;;;;;38.47;20.73;;;-5.50;99.90;;;;;;5045348;28;20116;-74
2023/12/04 04:42:16;;;;;;;39.28;20.85;;;-5.50;99.90;;;;;;5050627;28;20060;-74
2023/12/04 04:44:42;;;;;;;37.08;20.73;;;-5.50;99.90;;;;;;5046730;28;20049;-74
2023/12/04 04:47:08;;;;;;;35.40;20.45;;;-5.50;99.90;;;;;;5032787;28;20518;-74
2023/12/04 04:49:33;;;;;;;39.35;21.20;;;-5.50;99.90;;;;;;5046847;28;20100;-74
2023/12/04 04:51:59;;;;;;;37.80;20.30;;;-5.60;99.90;;;;;;5046841;28;20037;-74
2023/12/04 04:54:25;;;;;;;38.80;21.00;;;-5.60;99.90;;;;;;5049610;28;20029;-74
2023/12/04 04:56:51;;;;;;;33.33;20.05;;;-5.60;99.90;;;;;;5049914;28;20123;-74
2023/12/04 04:59:16;;;;;;;36.30;19.67;;;-5.60;99.90;;;;;;5045840;28;20130;-75
2023/12/04 05:01:42;;;;;;;32.30;18.92;;;-5.60;99.90;;;;;;5049243;28;20123;-74
2023/12/04 05:04:08;;;;;;;32.20;17.95;;;-5.60;99.90;;;;;;5051194;28;20033;-74
2023/12/04 05:06:34;;;;;;;35.03;20.27;;;-5.60;99.90;;;;;;5046836;28;20367;-74
2023/12/04 05:08:59;;;;;;;34.88;19.33;;;-5.60;99.90;;;;;;5049882;28;20123;-74
2023/12/04 05:11:25;;;;;;;34.15;18.92;;;-5.70;99.90;;;;;;5051790;28;20117;-75
2023/12/04 05:13:51;;;;;;;32.67;18.33;;;-5.70;99.90;;;;;;5051592;28;20025;-75
2023/12/04 05:16:16;;;;;;;32.88;17.73;;;-5.80;99.90;;;;;;5044362;28;20098;-74
2023/12/04 05:18:42;;;;;;;31.00;17.20;;;-5.70;99.90;;;;;;5041202;28;20116;-74
2023/12/04 05:21:12;;;;;;;31.77;18.10;;;-5.70;99.90;;;;;;5044026;28;20368;-74
2023/12/04 05:23:38;;;;;;;31.52;18.17;;;-5.70;99.90;;;;;;5044571;28;20108;-74
2023/12/04 05:26:06;;;;;;;33.17;18.73;;;-5.70;99.90;;;;;;5047410;28;20549;-74
2023/12/04 05:28:31;;;;;;;32.67;17.85;;;-5.70;99.90;;;;;;5030479;28;20029;-75
2023/12/04 05:30:57;;;;;;;33.35;19.15;;;-5.70;99.90;;;;;;5045715;28;20090;-74
2023/12/04 05:33:23;;;;;;;30.52;17.40;;;-5.70;99.90;;;;;;5051288;28;20021;-75
2023/12/04 05:35:51;;;;;;;32.70;17.83;;;-5.60;99.90;;;;;;5048526;28;20036;-75
2023/12/04 05:38:17;;;;;;;29.25;16.73;;;-5.60;99.90;;;;;;5044460;28;20032;-74
2023/12/04 05:40:43;;;;;;;33.65;18.35;;;-5.60;99.90;;;;;;5043976;28;20025;-75
2023/12/04 05:43:09;;;;;;;31.73;18.10;;;-5.60;99.90;;;;;;5046458;28;20068;-74
2023/12/04 05:45:35;;;;;;;30.15;16.80;;;-5.50;99.90;;;;;;5043518;28;20491;-74
2023/12/04 05:48:01;;;;;;;29.88;16.95;;;-5.50;99.90;;;;;;5040904;28;20083;-74
2023/12/04 05:50:27;;;;;;;30.40;17.50;;;-5.60;99.90;;;;;;5047242;28;20110;-74
2023/12/04 05:52:52;;;;;;;28.55;16.58;;;-5.60;99.90;;;;;;5048796;28;20025;-74
2023/12/04 05:55:18;;;;;;;28.27;16.27;;;-5.60;99.90;;;;;;5034484;28;20025;-74
2023/12/04 05:57:44;;;;;;;26.80;15.73;;;-5.70;99.90;;;;;;5045307;28;20056;-74
2023/12/04 06:00:13;;;;;;;30.40;17.33;;;-5.70;99.90;;;;;;5046307;28;20150;-74
2023/12/04 06:02:41;;;;;;;26.23;16.00;;;-5.70;99.90;;;;;;5058901;28;20383;-74
2023/12/04 06:05:07;;;;;;;27.02;16.13;;;-5.80;99.90;;;;;;5047158;28;20049;-74
2023/12/04 06:07:34;;;;;;;28.65;16.10;;;-5.70;99.90;;;;;;5040825;28;20087;-74
2023/12/04 06:09:59;;;;;;;26.65;15.73;;;-5.80;99.90;;;;;;5041167;28;20390;-74
2023/12/04 06:12:25;;;;;;;26.65;15.27;;;-5.70;99.90;;;;;;5052734;28;20082;-74
2023/12/04 06:14:51;;;;;;;26.92;15.65;;;-5.70;99.90;;;;;;5051138;28;20024;-74
2023/12/04 06:17:17;;;;;;;25.60;14.20;;;-5.70;99.90;;;;;;5029763;28;20120;-74
2023/12/04 06:19:42;;;;;;;25.60;14.85;;;-5.80;99.90;;;;;;5041556;28;20044;-75
2023/12/04 06:22:08;;;;;;;24.23;14.50;;;-5.80;99.90;;;;;;5046836;28;20056;-74
2023/12/04 06:24:34;;;;;;;24.92;14.20;;;-5.80;99.90;;;;;;5037271;28;20037;-75
2023/12/04 06:27:20;;;;;;;22.45;13.25;;;-5.80;99.90;;;;;;5041224;28;20043;-74
2023/12/04 06:29:47;;;;;;;22.10;13.38;;;-5.80;99.90;;;;;;5040408;28;20434;-74
2023/12/04 06:32:13;;;;;;;24.50;14.05;;;-5.80;99.90;;;;;;5028306;28;20506;-74
2023/12/04 06:34:39;;;;;;;20.73;12.10;;;-5.80;99.90;;;;;;5046999;28;20438;-74
2023/12/04 06:37:11;;;;;;;24.13;13.20;;;-5.80;99.90;;;;;;5042435;28;20024;-74
2023/12/04 06:39:38;;;;;;;20.23;12.00;;;-5.70;99.90;;;;;;5045749;28;20079;-74
2023/12/04 06:42:07;;;;;;;20.55;11.68;;;-5.70;99.90;;;;;;5047617;28;20449;-74
2023/12/04 06:44:33;;;;;;;20.15;11.88;;;-5.70;99.90;;;;;;5044111;28;20116;-74
2023/12/04 06:47:03;;;;;;;19.83;11.60;;;-5.70;99.90;;;;;;5043840;28;20903;-74
2023/12/04 06:49:31;;;;;;;19.15;11.75;;;-5.70;99.90;;;;;;5043152;28;20048;-74
2023/12/04 06:51:57;;;;;;;17.92;11.07;;;-5.60;99.90;;;;;;5027523;28;20029;-74
2023/12/04 06:54:22;;;;;;;18.45;11.48;;;-5.60;99.90;;;;;;5027629;28;20117;-75
2023/12/04 06:56:48;;;;;;;18.05;10.75;;;-5.60;99.90;;;;;;5043811;28;20030;-74
2023/12/04 06:59:14;;;;;;;17.48;10.20;;;-5.60;99.90;;;;;;5038948;28;20041;-75
2023/12/04 07:01:40;;;;;;;20.90;11.25;;;-5.50;99.90;;;;;;5045125;28;20040;-74
2023/12/04 07:04:09;;;;;;;18.17;11.13;;;-5.50;99.90;;;;;;5042210;28;20029;-74
2023/12/04 07:06:39;;;;;;;17.27;10.57;;;-5.60;99.90;;;;;;5042098;28;20040;-74
2023/12/04 07:09:09;;;;;;;19.77;10.35;;;-5.60;99.90;;;;;;5043386;28;20144;-74
2023/12/04 07:11:34;;;;;;;16.20;10.38;;;-5.60;99.90;;;;;;5046662;28;20491;-74
2023/12/04 07:14:00;;;;;;;18.38;10.63;;;-5.60;99.90;;;;;;5047744;28;20043;-74
2023/12/04 07:16:26;;;;;;;17.80;10.73;;;-5.60;99.90;;;;;;5029111;28;20110;-74
2023/12/04 07:18:52;;;;;;;16.50;9.65;;;-5.50;99.90;;;;;;5046208;28;20041;-74
2023/12/04 07:21:18;;;;;;;19.17;10.30;;;-5.60;99.90;;;;;;5023756;28;20099;-74
2023/12/04 07:23:43;;;;;;;16.30;9.63;;;-5.50;99.90;;;;;;5047163;28;20037;-74
2023/12/04 07:26:09;;;;;;;18.08;10.10;;;-5.50;99.90;;;;;;5040896;28;20083;-74
2023/12/04 07:28:35;;;;;;;14.27;8.88;;;-5.50;99.90;;;;;;5042352;28;20041;-75
2023/12/04 07:31:03;;;;;;;16.60;9.43;;;-5.50;99.90;;;;;;5033944;28;20116;-74
2023/12/04 07:33:29;;;;;;;17.65;9.40;;;-5.50;99.90;;;;;;5031344;28;20033;-75
2023/12/04 07:35:55;;;;;;;17.25;8.48;;;-5.50;99.90;;;;;;5041584;28;20039;-74
2023/12/04 07:38:21;;;;;;;14.50;8.88;;;-5.50;99.90;;;;;;5041960;28;20116;-74
2023/12/04 07:40:47;;;;;;;15.60;9.10;;;-5.50;99.90;;;;;;5047497;28;20049;-75
2023/12/04 07:43:14;;;;;;;18.13;9.63;;;-5.50;99.90;;;;;;5040093;28;20018;-75
2023/12/04 07:45:41;;;;;;;15.10;8.68;;;-5.50;99.90;;;;;;5044654;28;21456;-75
2023/12/04 07:48:25;;;;;;;16.70;9.07;;;-5.50;99.90;;;;;;5042266;28;20039;-75
2023/12/04 07:50:51;;;;;;;15.88;9.15;;;-5.40;99.90;;;;;;5029910;28;20028;-75
2023/12/04 07:53:16;;;;;;;15.48;9.23;;;-5.40;99.90;;;;;;5047247;28;20644;-74
2023/12/04 07:55:43;;;;;;;15.63;9.13;;;-5.30;99.90;;;;;;5040890;28;20077;-75
2023/12/04 07:58:09;;;;;;;14.73;8.68;;;-5.30;99.90;;;;;;5041002;28;20116;-75
2023/12/04 08:00:35;;;;;;;15.15;9.23;;;-5.20;99.90;;;;;;5045738;28;20128;-75
2023/12/04 08:03:00;;;;;;;13.90;8.20;;;-5.20;99.90;;;;;;5045819;28;20032;-74
2023/12/04 08:05:27;;;;;;;13.73;8.25;;;-5.20;99.90;;;;;;5046299;28;20032;-74
2023/12/04 08:07:53;;;;;;;14.10;8.02;;;-5.20;99.90;;;;;;5040014;28;20041;-74
2023/12/04 08:10:18;;;;;;;13.40;7.90;;;-5.20;99.90;;;;;;5044120;28;20145;-74
2023/12/04 08:12:46;;;;;;;13.98;8.13;;;-5.20;99.90;;;;;;5041680;28;20506;-74
2023/12/04 08:15:12;;;;;;;13.88;8.02;;;-5.10;99.90;;;;;;5039695;28;20086;-74
2023/12/04 08:17:37;;;;;;;15.02;8.45;;;-5.10;99.90;;;;;;5036576;28;20032;-74
2023/12/04 08:20:04;;;;;;;12.88;7.72;;;-5.10;99.90;;;;;;5041694;28;20423;-74
2023/12/04 08:22:29;;;;;;;14.13;8.13;;;-5.00;99.90;;;;;;5041776;28;20703;-74
2023/12/04 08:24:55;;;;;;;14.38;8.02;;;-5.00;99.90;;;;;;5038218;28;20171;-74
2023/12/04 08:27:21;;;;;;;14.23;7.38;;;-5.00;99.90;;;;;;5039306;28;20058;-73
2023/12/04 08:29:46;;;;;;;12.68;7.30;;;-4.90;99.90;;;;;;5036284;28;20696;-74
2023/12/04 08:32:12;;;;;;;13.05;7.35;;;-4.90;99.90;;;;;;5042821;28;20480;-74
2023/12/04 08:34:38;;;;;;;12.43;7.18;;;-4.80;99.90;;;;;;5042024;28;20040;-74
2023/12/04 08:37:04;;;;;;;12.73;7.47;;;-4.80;99.90;;;;;;5034575;28;20434;-74
2023/12/04 08:39:29;;;;;;;13.18;7.82;;;-4.70;99.90;;;;;;5041413;28;20427;-73
2023/12/04 08:41:55;;;;;;;13.45;7.38;;;-4.70;99.90;;;;;;5040931;28;20028;-74
2023/12/04 08:44:20;;;;;;;13.93;8.40;;;-4.60;99.90;;;;;;5038232;28;20021;-74
2023/12/04 08:46:46;;;;;;;13.65;7.65;;;-4.60;99.90;;;;;;5040500;28;20489;-72
2023/12/04 08:49:12;;;;;;;29.15;13.30;;;-4.50;99.90;;;;;;5041026;28;20469;-74
2023/12/04 08:51:38;;;;;;;58.20;22.92;;;-4.50;99.90;;;;;;5042909;28;20029;-74
2023/12/04 08:54:04;;;;;;;25.05;13.07;;;-4.40;99.90;;;;;;5040324;28;20579;-73
2023/12/04 08:56:29;;;;;;;12.13;7.38;;;-4.40;99.90;;;;;;5023503;28;20087;-73
2023/12/04 08:58:57;;;;;;;12.57;7.57;;;-4.40;99.90;;;;;;5042508;28;20028;-73
2023/12/04 09:01:23;;;;;;;12.20;7.03;;;-4.40;99.90;;;;;;5040051;28;20104;-73
2023/12/04 09:03:49;;;;;;;10.20;6.13;;;-4.40;99.90;;;;;;5036969;28;21511;-74
2023/12/04 09:06:15;;;;;;;11.90;7.03;;;-4.40;99.90;;;;;;5036308;28;20030;-73
2023/12/04 09:08:41;;;;;;;12.35;7.05;;;-4.30;99.90;;;;;;5040384;28;20067;-74
2023/12/04 09:11:07;;;;;;;11.27;6.18;;;-4.40;99.90;;;;;;5042110;28;20025;-74
2023/12/04 09:13:33;;;;;;;12.05;5.93;;;-4.40;99.90;;;;;;5044902;28;20110;-73
2023/12/04 09:15:59;;;;;;;11.15;6.35;;;-4.30;99.90;;;;;;5034847;28;20606;-73
2023/12/04 09:18:25;;;;;;;10.95;5.93;;;-4.40;99.90;;;;;;5038024;28;20032;-73
2023/12/04 09:20:51;;;;;;;11.27;5.82;;;-4.50;99.90;;;;;;5040717;28;20031;-73
2023/12/04 09:23:16;;;;;;;11.52;5.90;;;-4.50;99.90;;;;;;5040092;28;20114;-74
2023/12/04 09:25:42;;;;;;;10.27;5.55;;;-4.50;99.90;;;;;;5034340;28;20037;-74
2023/12/04 09:28:08;;;;;;;10.68;6.28;;;-4.40;99.90;;;;;;5032195;28;20017;-74
2023/12/04 09:30:37;;;;;;;11.55;5.95;;;-4.40;99.90;;;;;;5054817;28;20387;-74
2023/12/04 09:33:02;;;;;;;10.70;6.28;;;-4.30;99.90;;;;;;5044204;28;20037;-74
2023/12/04 09:35:28;;;;;;;10.25;5.78;;;-4.30;99.90;;;;;;5042161;28;20021;-73
2023/12/04 09:37:54;;;;;;;11.15;6.13;;;-4.20;99.90;;;;;;5041243;28;20034;-74
2023/12/04 09:40:20;;;;;;;10.57;5.38;;;-4.10;99.90;;;;;;5040945;28;20543;-74
2023/12/04 09:42:46;;;;;;;11.85;5.75;;;-4.10;99.90;;;;;;5041507;28;20056;-74
2023/12/04 09:45:12;;;;;;;9.48;5.45;;;-4.10;99.90;;;;;;5044166;28;20021;-73
2023/12/04 09:47:38;;;;;;;10.40;5.45;;;-4.00;99.90;;;;;;5038933;28;20029;-74
2023/12/04 09:50:05;;;;;;;11.35;5.50;;;-3.90;99.90;;;;;;5039616;28;20029;-74
2023/12/04 09:52:33;;;;;;;10.55;5.95;;;-3.90;99.90;;;;;;5002696;28;20026;-75
2023/12/04 09:54:59;;;;;;;11.38;6.22;;;-3.80;99.90;;;;;;5042342;28;20355;-74
2023/12/04 09:57:26;;;;;;;9.82;5.97;;;-3.70;99.90;;;;;;5038805;28;20036;-73
2023/12/04 09:59:52;;;;;;;10.15;5.22;;;-3.70;99.90;;;;;;5043359;28;20048;-74
2023/12/04 10:02:19;;;;;;;11.80;5.40;;;-3.60;99.90;;;;;;5039996;28;20029;-74
2023/12/04 10:04:46;;;;;;;9.88;5.85;;;-3.60;99.90;;;;;;5041997;28;20094;-74
2023/12/04 10:07:12;;;;;;;10.73;5.57;;;-3.60;99.90;;;;;;5051119;28;20069;-74
2023/12/04 10:09:37;;;;;;;10.32;5.03;;;-3.50;99.90;;;;;;5038229;28;20075;-74
2023/12/04 10:12:05;;;;;;;10.48;5.35;;;-3.50;99.90;;;;;;5043776;28;20406;-73
2023/12/04 10:14:31;;;;;;;8.20;4.90;;;-3.50;99.90;;;;;;5043402;28;20025;-74
2023/12/04 10:16:57;;;;;;;7.70;4.75;;;-3.60;99.90;;;;;;5037028;28;20036;-74
2023/12/04 10:19:29;;;;;;;7.78;4.57;;;-3.60;99.90;;;;;;5044889;28;20424;-73
2023/12/04 10:21:59;;;;;;;9.05;5.22;;;-3.60;99.90;;;;;;5046684;28;20048;-73
2023/12/04 10:24:38;;;;;;;7.88;4.72;;;-3.50;99.90;;;;;;5036882;28;20040;-73
2023/12/04 10:27:11;;;;;;;9.38;4.65;;;-3.50;99.90;;;;;;5042526;28;20059;-73
2023/12/04 10:29:52;;;;;;;9.32;5.38;;;-3.40;99.90;;;;;;5040561;28;20501;-73
2023/12/04 10:32:21;;;;;;;9.55;6.10;;;-3.30;99.90;;;;;;5042801;28;20363;-74
2023/12/04 10:34:47;;;;;;;9.00;4.88;;;-3.30;99.90;;;;;;5044036;28;20041;-73
2023/12/04 10:37:14;;;;;;;9.80;5.30;;;-3.20;99.90;;;;;;5043498;28;20017;-73
2023/12/04 10:39:50;;;;;;;9.32;5.20;;;-3.20;99.90;;;;;;5042036;28;20044;-73
2023/12/04 10:42:27;;;;;;;9.48;5.28;;;-3.10;99.90;;;;;;5045455;28;20490;-73
2023/12/04 10:44:55;;;;;;;9.18;4.72;;;-3.10;99.90;;;;;;5045418;28;20033;-73
2023/12/04 10:47:22;;;;;;;10.43;5.10;;;-3.00;99.90;;;;;;5041395;28;20112;-73
2023/12/04 10:49:51;;;;;;;10.52;5.35;;;-3.00;99.90;;;;;;5042963;28;20041;-73
2023/12/04 10:52:19;;;;;;;8.20;5.13;;;-3.00;99.90;;;;;;5045333;28;20057;-73
2023/12/04 10:54:48;;;;;;;7.80;4.47;;;-2.90;99.90;;;;;;5046975;28;20064;-74
2023/12/04 10:57:31;;;;;;;9.48;5.18;;;-3.00;99.90;;;;;;5044108;28;20086;-73
2023/12/04 11:00:03;;;;;;;10.15;5.28;;;-3.00;99.90;;;;;;5048760;28;20044;-73
2023/12/04 11:02:31;;;;;;;7.90;4.68;;;-3.00;99.90;;;;;;5050706;28;20044;-73
2023/12/04 11:05:13;;;;;;;9.90;5.38;;;-3.10;99.90;;;;;;5055434;28;20033;-73
2023/12/04 11:07:41;;;;;;;9.93;5.22;;;-3.10;99.90;;;;;;5042461;28;20040;-73
2023/12/04 11:10:10;;;;;;;7.63;4.47;;;-3.20;99.90;;;;;;5043726;28;20017;-73
2023/12/04 11:12:43;;;;;;;9.75;5.28;;;-3.20;99.90;;;;;;5046375;28;20024;-74
2023/12/04 11:15:12;;;;;;;9.70;5.70;;;-3.20;99.90;;;;;;5048368;28;20036;-73
2023/12/04 11:17:40;;;;;;;9.25;4.93;;;-3.30;99.90;;;;;;5041726;28;20151;-74
2023/12/04 11:20:13;;;;;;;10.45;5.32;;;-3.30;99.90;;;;;;5049220;28;20088;-73
2023/12/04 11:22:40;;;;;;;10.13;5.32;;;-3.20;99.90;;;;;;5050301;28;20029;-73
2023/12/04 11:25:08;;;;;;;9.73;4.82;;;-3.20;99.90;;;;;;5047478;28;20573;-73
2023/12/04 11:27:35;;;;;;;10.88;5.55;;;-3.10;99.90;;;;;;5044416;28;20045;-73
2023/12/04 11:30:03;;;;;;;10.52;4.93;;;-2.90;99.90;;;;;;5044134;28;20075;-73
2023/12/04 11:32:29;;;;;;;10.43;5.43;;;-2.90;99.90;;;;;;5045743;28;20431;-73
2023/12/04 11:34:59;;;;;;;11.35;5.57;;;-2.90;99.90;;;;;;5050406;28;20025;-73
2023/12/04 11:37:26;;;;;;;9.25;5.35;;;-2.90;99.90;;;;;;5043439;28;20032;-73
2023/12/04 11:39:52;;;;;;;8.98;5.07;;;-2.90;99.90;;;;;;5046560;28;20421;-73
2023/12/04 11:42:25;;;;;;;9.20;5.18;;;-2.90;99.90;;;;;;5020697;28;20064;-73
2023/12/04 11:45:00;;;;;;;9.27;5.68;;;-2.90;99.90;;;;;;5051733;28;20036;-73
2023/12/04 11:47:28;;;;;;;9.07;4.88;;;-2.90;99.90;;;;;;5043965;28;20128;-73
2023/12/04 11:49:54;;;;;;;8.43;4.68;;;-2.90;99.90;;;;;;5043604;28;20494;-73
2023/12/04 11:52:34;;;;;;;7.95;5.03;;;-2.90;99.90;;;;;;5049495;28;20028;-72
2023/12/04 11:55:04;;;;;;;11.55;5.22;;;-2.90;99.90;;;;;;5047405;28;20040;-72
2023/12/04 11:57:35;;;;;;;13.55;5.80;;;-2.90;99.90;;;;;;5042706;28;20383;-73
2023/12/04 12:00:22;;;;;;;10.73;5.28;;;-2.90;99.90;;;;;;5050420;28;20035;-73
2023/12/04 12:02:54;;;;;;;9.23;5.18;;;-2.90;99.90;;;;;;5049727;28;20047;-73
2023/12/04 12:05:21;;;;;;;7.88;4.70;;;-2.90;99.90;;;;;;5060285;28;20052;-72
2023/12/04 12:07:47;;;;;;;11.48;5.47;;;-2.80;99.90;;;;;;5030635;28;20037;-73
2023/12/04 12:10:13;;;;;;;8.95;5.43;;;-2.70;99.90;;;;;;5044395;28;20409;-73
2023/12/04 12:12:49;;;;;;;11.40;4.82;;;-2.70;99.90;;;;;;5049925;28;20036;-73
2023/12/04 12:15:17;;;;;;;10.60;5.38;;;-2.80;99.90;;;;;;5045438;28;20185;-73
2023/12/04 12:17:43;;;;;;;9.02;5.30;;;-2.70;99.90;;;;;;5046087;28;20396;-73
2023/12/04 12:20:11;;;;;;;8.63;5.03;;;-2.70;99.90;;;;;;5046192;28;20082;-73
2023/12/04 12:22:41;;;;;;;9.90;4.35;;;-2.80;99.90;;;;;;5045169;28;20051;-73
2023/12/04 12:25:13;;;;;;;11.43;5.38;;;-2.80;99.90;;;;;;5042640;28;20025;-73
2023/12/04 12:27:39;;;;;;;9.85;5.55;;;-2.80;99.90;;;;;;5042110;28;20501;-72
2023/12/04 12:30:06;;;;;;;11.13;5.10;;;-2.80;99.90;;;;;;5040776;28;20032;-73
2023/12/04 12:32:35;;;;;;;11.23;5.53;;;-2.80;99.90;;;;;;5043421;28;20040;-73